sensor_id;sensor_type;location;lat;lon;timestamp;pressure;altitude;pressure_sealevel;temperature;humidity
6565;BME280;3316;44.118;27.258;2023-02-12T00:01:24;102119.97;;;0.85;100.00
6565;BME280;3316;44.118;27.258;2023-02-12T00:03:49;102113.75;;;0.81;100.00
6565;BME280;3316;44.118;27.258;2023-02-12T00:06:15;102114.47;;;0.79;100.00
6565;BME280;3316;44.118;27.258;2023-02-12T00:08:41;102112.38;;;0.72;100.00
6565;BME280;3316;44.118;27.258;2023-02-12T00:11:08;102115.03;;;0.73;100.00
6565;BME280;3316;44.118;27.258;2023-02-12T00:13:34;102107.91;;;0.69;100.00
6565;BME280;3316;44.118;27.258;2023-02-12T00:16:04;102099.31;;;0.70;100.00
6565;BME280;3316;44.118;27.258;2023-02-12T00:18:29;102115.94;;;0.74;100.00
6565;BME280;3316;44.118;27.258;2023-02-12T00:20:58;102053.50;;;0.37;100.00
6565;BME280;3316;44.118;27.258;2023-02-12T00:23:24;102100.28;;;0.72;100.00
6565;BME280;3316;44.118;27.258;2023-02-12T00:25:50;102107.66;;;0.81;100.00
6565;BME280;3316;44.118;27.258;2023-02-12T00:28:15;102065.69;;;0.54;100.00
6565;BME280;3316;44.118;27.258;2023-02-12T00:30:40;102097.69;;;0.72;100.00
6565;BME280;3316;44.118;27.258;2023-02-12T00:33:06;102100.72;;;0.80;100.00
6565;BME280;3316;44.118;27.258;2023-02-12T00:35:31;102094.00;;;0.67;100.00
6565;BME280;3316;44.118;27.258;2023-02-12T00:37:57;102061.16;;;0.50;100.00
6565;BME280;3316;44.118;27.258;2023-02-12T00:40:23;102088.94;;;0.70;100.00
6565;BME280;3316;44.118;27.258;2023-02-12T00:42:48;102087.25;;;0.71;100.00
6565;BME280;3316;44.118;27.258;2023-02-12T00:45:13;101989.88;;;0.09;100.00
6565;BME280;3316;44.118;27.258;2023-02-12T00:47:39;102079.03;;;0.62;100.00
6565;BME280;3316;44.118;27.258;2023-02-12T00:50:05;102088.81;;;0.67;100.00
6565;BME280;3316;44.118;27.258;2023-02-12T00:52:30;102073.19;;;0.66;100.00
6565;BME280;3316;44.118;27.258;2023-02-12T00:54:56;102074.75;;;0.62;100.00
6565;BME280;3316;44.118;27.258;2023-02-12T00:57:21;102084.28;;;0.63;100.00
6565;BME280;3316;44.118;27.258;2023-02-12T00:59:47;102077.97;;;0.58;100.00
6565;BME280;3316;44.118;27.258;2023-02-12T01:02:12;102080.72;;;0.61;100.00
6565;BME280;3316;44.118;27.258;2023-02-12T01:04:37;102041.16;;;0.32;100.00
6565;BME280;3316;44.118;27.258;2023-02-12T01:07:03;102089.94;;;0.56;100.00
6565;BME280;3316;44.118;27.258;2023-02-12T01:09:28;102073.69;;;0.43;100.00
6565;BME280;3316;44.118;27.258;2023-02-12T01:11:54;102099.97;;;0.50;100.00
6565;BME280;3316;44.118;27.258;2023-02-12T01:14:19;102086.63;;;0.43;100.00
6565;BME280;3316;44.118;27.258;2023-02-12T01:16:45;102090.44;;;0.65;100.00
6565;BME280;3316;44.118;27.258;2023-02-12T01:19:11;102081.03;;;0.51;100.00
6565;BME280;3316;44.118;27.258;2023-02-12T01:21:37;102066.97;;;0.46;100.00
6565;BME280;3316;44.118;27.258;2023-02-12T01:24:03;102078.31;;;0.64;100.00
6565;BME280;3316;44.118;27.258;2023-02-12T01:26:29;102013.41;;;0.29;100.00
6565;BME280;3316;44.118;27.258;2023-02-12T01:28:57;102062.44;;;0.58;100.00
6565;BME280;3316;44.118;27.258;2023-02-12T01:31:26;102063.22;;;0.57;100.00
6565;BME280;3316;44.118;27.258;2023-02-12T01:33:53;102068.91;;;0.50;100.00
6565;BME280;3316;44.118;27.258;2023-02-12T01:36:20;102065.34;;;0.48;100.00
6565;BME280;3316;44.118;27.258;2023-02-12T01:38:46;102064.59;;;0.51;100.00
6565;BME280;3316;44.118;27.258;2023-02-12T01:41:14;102051.81;;;0.38;100.00
6565;BME280;3316;44.118;27.258;2023-02-12T01:43:40;102059.28;;;0.48;100.00
6565;BME280;3316;44.118;27.258;2023-02-12T01:46:07;102065.09;;;0.44;100.00
6565;BME280;3316;44.118;27.258;2023-02-12T01:48:45;102044.88;;;0.37;100.00
6565;BME280;3316;44.118;27.258;2023-02-12T01:51:16;102051.19;;;0.42;100.00
6565;BME280;3316;44.118;27.258;2023-02-12T01:53:49;102055.63;;;0.44;100.00
6565;BME280;3316;44.118;27.258;2023-02-12T01:56:16;102065.69;;;0.54;100.00
6565;BME280;3316;44.118;27.258;2023-02-12T01:58:43;102063.81;;;0.52;100.00
6565;BME280;3316;44.118;27.258;2023-02-12T02:01:14;102061.34;;;0.55;100.00
6565;BME280;3316;44.118;27.258;2023-02-12T02:03:44;102046.91;;;0.42;100.00
6565;BME280;3316;44.118;27.258;2023-02-12T02:06:15;102059.03;;;0.43;100.00
6565;BME280;3316;44.118;27.258;2023-02-12T02:08:42;102068.09;;;0.51;100.00
6565;BME280;3316;44.118;27.258;2023-02-12T02:11:07;102062.59;;;0.45;100.00
6565;BME280;3316;44.118;27.258;2023-02-12T02:13:53;102061.03;;;0.49;100.00
6565;BME280;3316;44.118;27.258;2023-02-12T02:16:41;102055.97;;;0.50;100.00
6565;BME280;3316;44.118;27.258;2023-02-12T02:19:29;102048.84;;;0.46;100.00
6565;BME280;3316;44.118;27.258;2023-02-12T02:32:37;102071.56;;;0.52;100.00
6565;BME280;3316;44.118;27.258;2023-02-12T02:35:14;102071.72;;;0.55;100.00
6565;BME280;3316;44.118;27.258;2023-02-12T02:37:59;102074.31;;;0.55;100.00
6565;BME280;3316;44.118;27.258;2023-02-12T02:40:52;102077.66;;;0.52;100.00
6565;BME280;3316;44.118;27.258;2023-02-12T02:43:27;102089.19;;;0.59;100.00
6565;BME280;3316;44.118;27.258;2023-02-12T02:45:59;102089.47;;;0.63;100.00
6565;BME280;3316;44.118;27.258;2023-02-12T02:48:36;102098.78;;;0.60;100.00
6565;BME280;3316;44.118;27.258;2023-02-12T02:51:07;102092.03;;;0.63;100.00
6565;BME280;3316;44.118;27.258;2023-02-12T02:53:42;102073.97;;;0.49;100.00
6565;BME280;3316;44.118;27.258;2023-02-12T02:56:13;102086.72;;;0.60;100.00
6565;BME280;3316;44.118;27.258;2023-02-12T02:59:04;102109.06;;;0.58;100.00
6565;BME280;3316;44.118;27.258;2023-02-12T03:01:38;102094.81;;;0.50;100.00
6565;BME280;3316;44.118;27.258;2023-02-12T03:04:08;102111.72;;;0.60;100.00
6565;BME280;3316;44.118;27.258;2023-02-12T03:06:51;102103.38;;;0.49;100.00
6565;BME280;3316;44.118;27.258;2023-02-12T03:09:22;102111.00;;;0.62;100.00
6565;BME280;3316;44.118;27.258;2023-02-12T03:11:58;102126.28;;;0.74;100.00
6565;BME280;3316;44.118;27.258;2023-02-12T03:14:30;102128.13;;;0.76;100.00
6565;BME280;3316;44.118;27.258;2023-02-12T03:17:33;102125.22;;;0.86;100.00
6565;BME280;3316;44.118;27.258;2023-02-12T03:20:16;102090.16;;;0.61;100.00
6565;BME280;3316;44.118;27.258;2023-02-12T03:22:46;102133.81;;;0.85;100.00
6565;BME280;3316;44.118;27.258;2023-02-12T03:25:21;102125.47;;;0.75;100.00
6565;BME280;3316;44.118;27.258;2023-02-12T03:27:57;102137.13;;;0.83;100.00
6565;BME280;3316;44.118;27.258;2023-02-12T03:30:33;102121.75;;;0.70;100.00
6565;BME280;3316;44.118;27.258;2023-02-12T03:33:19;102046.88;;;0.26;100.00
6565;BME280;3316;44.118;27.258;2023-02-12T03:39:07;102128.63;;;0.69;100.00
6565;BME280;3316;44.118;27.258;2023-02-12T03:41:57;102107.50;;;0.62;100.00
6565;BME280;3316;44.118;27.258;2023-02-12T03:47:21;102142.00;;;0.77;100.00
6565;BME280;3316;44.118;27.258;2023-02-12T03:50:02;102083.06;;;0.41;100.00
6565;BME280;3316;44.118;27.258;2023-02-12T03:52:30;102124.09;;;0.65;100.00
6565;BME280;3316;44.118;27.258;2023-02-12T03:54:56;102114.56;;;0.64;100.00
6565;BME280;3316;44.118;27.258;2023-02-12T03:57:25;102129.03;;;0.77;100.00
6565;BME280;3316;44.118;27.258;2023-02-12T03:59:56;102101.44;;;0.61;100.00
6565;BME280;3316;44.118;27.258;2023-02-12T04:02:22;102127.00;;;0.71;100.00
6565;BME280;3316;44.118;27.258;2023-02-12T04:04:48;102130.97;;;0.81;100.00
6565;BME280;3316;44.118;27.258;2023-02-12T04:07:14;102087.38;;;0.56;100.00
6565;BME280;3316;44.118;27.258;2023-02-12T04:09:40;102134.28;;;0.78;100.00
6565;BME280;3316;44.118;27.258;2023-02-12T04:17:49;102149.13;;;0.81;100.00
6565;BME280;3316;44.118;27.258;2023-02-12T04:31:49;102147.75;;;0.87;100.00
6565;BME280;3316;44.118;27.258;2023-02-12T04:37:21;102138.81;;;0.82;100.00
6565;BME280;3316;44.118;27.258;2023-02-12T04:39:48;102144.31;;;0.72;100.00
6565;BME280;3316;44.118;27.258;2023-02-12T04:42:14;102159.22;;;0.76;100.00
6565;BME280;3316;44.118;27.258;2023-02-12T04:44:42;102166.34;;;0.80;100.00
6565;BME280;3316;44.118;27.258;2023-02-12T04:47:12;102168.22;;;0.83;100.00
6565;BME280;3316;44.118;27.258;2023-02-12T04:49:37;102162.78;;;0.78;100.00
6565;BME280;3316;44.118;27.258;2023-02-12T04:52:03;102170.75;;;0.81;100.00
6565;BME280;3316;44.118;27.258;2023-02-12T04:54:28;102149.44;;;0.71;100.00
6565;BME280;3316;44.118;27.258;2023-02-12T04:56:54;102184.66;;;0.83;100.00
6565;BME280;3316;44.118;27.258;2023-02-12T04:59:20;102178.72;;;0.86;100.00
6565;BME280;3316;44.118;27.258;2023-02-12T05:01:45;102189.09;;;0.86;100.00
6565;BME280;3316;44.118;27.258;2023-02-12T05:04:13;102186.34;;;0.83;100.00
6565;BME280;3316;44.118;27.258;2023-02-12T05:06:39;102182.78;;;0.81;100.00
6565;BME280;3316;44.118;27.258;2023-02-12T05:09:06;102182.06;;;0.83;100.00
6565;BME280;3316;44.118;27.258;2023-02-12T05:11:32;102179.47;;;0.83;100.00
6565;BME280;3316;44.118;27.258;2023-02-12T05:13:58;102189.84;;;0.83;100.00
6565;BME280;3316;44.118;27.258;2023-02-12T05:16:24;102188.81;;;0.80;100.00
6565;BME280;3316;44.118;27.258;2023-02-12T05:18:49;102194.13;;;0.83;100.00
6565;BME280;3316;44.118;27.258;2023-02-12T05:21:15;102199.31;;;0.83;100.00
6565;BME280;3316;44.118;27.258;2023-02-12T05:23:41;102211.78;;;0.90;100.00
6565;BME280;3316;44.118;27.258;2023-02-12T05:26:11;102224.66;;;0.88;100.00
6565;BME280;3316;44.118;27.258;2023-02-12T05:28:36;102230.56;;;0.86;100.00
6565;BME280;3316;44.118;27.258;2023-02-12T05:31:04;102221.72;;;0.82;100.00
6565;BME280;3316;44.118;27.258;2023-02-12T05:33:30;102235.34;;;0.95;100.00
6565;BME280;3316;44.118;27.258;2023-02-12T05:36:09;102228.88;;;0.86;100.00
6565;BME280;3316;44.118;27.258;2023-02-12T05:38:35;102235.50;;;0.98;100.00
6565;BME280;3316;44.118;27.258;2023-02-12T05:41:03;102241.09;;;0.89;100.00
6565;BME280;3316;44.118;27.258;2023-02-12T05:43:29;102254.38;;;0.95;100.00
6565;BME280;3316;44.118;27.258;2023-02-12T05:46:00;102250.91;;;0.95;100.00
6565;BME280;3316;44.118;27.258;2023-02-12T05:48:26;102251.38;;;0.87;100.00
6565;BME280;3316;44.118;27.258;2023-02-12T05:50:52;102258.53;;;0.92;100.00
6565;BME280;3316;44.118;27.258;2023-02-12T05:53:17;102253.00;;;0.85;100.00
6565;BME280;3316;44.118;27.258;2023-02-12T05:55:43;102258.25;;;0.87;100.00
6565;BME280;3316;44.118;27.258;2023-02-12T05:58:08;102261.91;;;0.90;100.00
6565;BME280;3316;44.118;27.258;2023-02-12T06:00:33;102223.50;;;0.67;100.00
6565;BME280;3316;44.118;27.258;2023-02-12T06:02:59;102278.78;;;0.99;100.00
6565;BME280;3316;44.118;27.258;2023-02-12T06:05:24;102268.63;;;0.87;100.00
6565;BME280;3316;44.118;27.258;2023-02-12T06:07:50;102272.19;;;0.89;100.00
6565;BME280;3316;44.118;27.258;2023-02-12T06:10:15;102288.00;;;1.10;100.00
6565;BME280;3316;44.118;27.258;2023-02-12T06:12:41;102281.38;;;1.15;100.00
6565;BME280;3316;44.118;27.258;2023-02-12T06:15:07;102282.94;;;1.11;100.00
6565;BME280;3316;44.118;27.258;2023-02-12T06:17:33;102277.00;;;1.14;100.00
6565;BME280;3316;44.118;27.258;2023-02-12T06:19:59;102287.94;;;1.24;100.00
6565;BME280;3316;44.118;27.258;2023-02-12T06:22:24;102228.94;;;0.88;100.00
6565;BME280;3316;44.118;27.258;2023-02-12T06:24:49;102273.81;;;1.19;100.00
6565;BME280;3316;44.118;27.258;2023-02-12T06:27:15;102293.28;;;1.27;100.00
6565;BME280;3316;44.118;27.258;2023-02-12T06:29:40;102289.63;;;1.24;100.00
6565;BME280;3316;44.118;27.258;2023-02-12T06:32:07;102300.75;;;1.37;100.00
6565;BME280;3316;44.118;27.258;2023-02-12T06:34:33;102300.75;;;1.37;100.00
6565;BME280;3316;44.118;27.258;2023-02-12T06:36:58;102298.16;;;1.37;100.00
6565;BME280;3316;44.118;27.258;2023-02-12T06:39:24;102286.00;;;1.36;100.00
6565;BME280;3316;44.118;27.258;2023-02-12T06:41:49;102311.03;;;1.52;100.00
6565;BME280;3316;44.118;27.258;2023-02-12T06:44:14;102306.31;;;1.61;100.00
6565;BME280;3316;44.118;27.258;2023-02-12T06:46:40;102313.13;;;1.59;100.00
6565;BME280;3316;44.118;27.258;2023-02-12T06:49:06;102309.63;;;1.74;100.00
6565;BME280;3316;44.118;27.258;2023-02-12T06:51:31;102306.38;;;1.78;100.00
6565;BME280;3316;44.118;27.258;2023-02-12T06:53:57;102273.72;;;1.66;100.00
6565;BME280;3316;44.118;27.258;2023-02-12T06:56:24;102293.47;;;1.80;100.00
6565;BME280;3316;44.118;27.258;2023-02-12T06:58:55;102313.00;;;1.90;100.00
6565;BME280;3316;44.118;27.258;2023-02-12T07:01:24;102304.19;;;1.86;100.00
6565;BME280;3316;44.118;27.258;2023-02-12T07:03:52;102311.69;;;1.98;100.00
6565;BME280;3316;44.118;27.258;2023-02-12T07:06:18;102321.09;;;2.12;100.00
6565;BME280;3316;44.118;27.258;2023-02-12T07:08:44;102318.03;;;2.03;100.00
6565;BME280;3316;44.118;27.258;2023-02-12T07:11:10;102332.81;;;2.21;100.00
6565;BME280;3316;44.118;27.258;2023-02-12T07:13:36;102312.38;;;2.11;100.00
6565;BME280;3316;44.118;27.258;2023-02-12T07:16:05;102307.19;;;2.11;100.00
6565;BME280;3316;44.118;27.258;2023-02-12T07:18:33;102337.34;;;2.25;100.00
6565;BME280;3316;44.118;27.258;2023-02-12T07:20:58;102337.41;;;2.27;100.00
6565;BME280;3316;44.118;27.258;2023-02-12T07:23:24;102344.31;;;2.26;100.00
6565;BME280;3316;44.118;27.258;2023-02-12T07:25:57;102351.63;;;2.33;100.00
6565;BME280;3316;44.118;27.258;2023-02-12T07:28:22;102349.25;;;2.38;100.00
6565;BME280;3316;44.118;27.258;2023-02-12T07:30:48;102344.72;;;2.34;100.00
6565;BME280;3316;44.118;27.258;2023-02-12T07:33:13;102329.97;;;2.17;100.00
6565;BME280;3316;44.118;27.258;2023-02-12T07:35:39;102342.66;;;2.11;100.00
6565;BME280;3316;44.118;27.258;2023-02-12T07:38:04;102344.09;;;2.22;100.00
6565;BME280;3316;44.118;27.258;2023-02-12T07:40:30;102339.81;;;2.22;100.00
6565;BME280;3316;44.118;27.258;2023-02-12T07:42:55;102354.16;;;2.32;100.00
6565;BME280;3316;44.118;27.258;2023-02-12T07:45:21;102352.94;;;2.25;100.00
6565;BME280;3316;44.118;27.258;2023-02-12T07:47:46;102359.25;;;2.30;100.00
6565;BME280;3316;44.118;27.258;2023-02-12T07:50:12;102364.59;;;2.33;100.00
6565;BME280;3316;44.118;27.258;2023-02-12T07:52:37;102267.22;;;1.74;100.00
6565;BME280;3316;44.118;27.258;2023-02-12T07:55:03;102347.97;;;2.30;100.00
6565;BME280;3316;44.118;27.258;2023-02-12T07:57:28;102363.78;;;2.34;100.00
6565;BME280;3316;44.118;27.258;2023-02-12T07:59:54;102350.75;;;2.17;100.00
6565;BME280;3316;44.118;27.258;2023-02-12T08:02:19;102375.34;;;2.23;100.00
6565;BME280;3316;44.118;27.258;2023-02-12T08:04:45;102366.13;;;2.12;100.00
6565;BME280;3316;44.118;27.258;2023-02-12T08:07:10;102377.63;;;2.01;100.00
6565;BME280;3316;44.118;27.258;2023-02-12T08:09:36;102373.41;;;2.19;100.00
6565;BME280;3316;44.118;27.258;2023-02-12T08:12:01;102358.78;;;2.21;100.00
6565;BME280;3316;44.118;27.258;2023-02-12T08:14:28;102390.03;;;2.23;100.00
6565;BME280;3316;44.118;27.258;2023-02-12T08:16:53;102392.16;;;2.14;100.00
6565;BME280;3316;44.118;27.258;2023-02-12T08:19:19;102377.13;;;2.42;100.00
6565;BME280;3316;44.118;27.258;2023-02-12T08:21:48;102374.84;;;2.48;100.00
6565;BME280;3316;44.118;27.258;2023-02-12T08:24:13;102371.50;;;2.33;100.00
6565;BME280;3316;44.118;27.258;2023-02-12T08:26:39;102359.75;;;2.23;100.00
6565;BME280;3316;44.118;27.258;2023-02-12T08:29:10;102382.63;;;2.30;100.00
6565;BME280;3316;44.118;27.258;2023-02-12T08:31:41;102401.22;;;2.38;100.00
6565;BME280;3316;44.118;27.258;2023-02-12T08:34:15;102372.41;;;2.33;100.00
6565;BME280;3316;44.118;27.258;2023-02-12T08:36:41;102401.84;;;2.85;100.00
6565;BME280;3316;44.118;27.258;2023-02-12T08:39:08;102395.84;;;2.86;100.00
6565;BME280;3316;44.118;27.258;2023-02-12T08:41:34;102383.88;;;2.72;100.00
6565;BME280;3316;44.118;27.258;2023-02-12T08:44:03;102387.06;;;2.66;100.00
6565;BME280;3316;44.118;27.258;2023-02-12T08:46:34;102360.63;;;2.57;100.00
6565;BME280;3316;44.118;27.258;2023-02-12T08:49:02;102400.66;;;2.79;100.00
6565;BME280;3316;44.118;27.258;2023-02-12T08:51:38;102404.06;;;2.78;100.00
6565;BME280;3316;44.118;27.258;2023-02-12T08:54:06;102415.66;;;2.84;100.00
6565;BME280;3316;44.118;27.258;2023-02-12T08:56:33;102412.38;;;2.70;100.00
6565;BME280;3316;44.118;27.258;2023-02-12T08:59:00;102434.81;;;2.68;100.00
6565;BME280;3316;44.118;27.258;2023-02-12T09:01:28;102453.38;;;2.76;100.00
6565;BME280;3316;44.118;27.258;2023-02-12T09:03:54;102444.53;;;2.72;100.00
6565;BME280;3316;44.118;27.258;2023-02-12T09:06:21;102464.81;;;2.80;100.00
6565;BME280;3316;44.118;27.258;2023-02-12T09:08:47;102468.09;;;2.93;100.00
6565;BME280;3316;44.118;27.258;2023-02-12T09:11:24;102462.22;;;2.80;100.00
6565;BME280;3316;44.118;27.258;2023-02-12T09:13:58;102464.81;;;2.80;100.00
6565;BME280;3316;44.118;27.258;2023-02-12T09:16:27;102458.44;;;2.91;100.00
6565;BME280;3316;44.118;27.258;2023-02-12T09:18:53;102442.69;;;2.88;100.00
6565;BME280;3316;44.118;27.258;2023-02-12T09:21:19;102439.13;;;2.86;100.00
6565;BME280;3316;44.118;27.258;2023-02-12T09:23:46;102443.44;;;3.03;100.00
6565;BME280;3316;44.118;27.258;2023-02-12T09:26:14;102413.66;;;2.96;100.00
6565;BME280;3316;44.118;27.258;2023-02-12T09:28:40;102456.00;;;3.11;100.00
6565;BME280;3316;44.118;27.258;2023-02-12T09:31:08;102456.25;;;3.33;100.00
6565;BME280;3316;44.118;27.258;2023-02-12T09:33:34;102465.56;;;3.30;100.00
6565;BME280;3316;44.118;27.258;2023-02-12T09:36:01;102461.81;;;3.41;100.00
6565;BME280;3316;44.118;27.258;2023-02-12T09:38:27;102468.94;;;3.27;100.00
6565;BME280;3316;44.118;27.258;2023-02-12T09:43:52;102476.44;;;3.39;100.00
6565;BME280;3316;44.118;27.258;2023-02-12T09:46:28;102480.44;;;3.32;100.00
6565;BME280;3316;44.118;27.258;2023-02-12T09:51:30;102499.69;;;3.36;100.00
6565;BME280;3316;44.118;27.258;2023-02-12T09:54:17;102480.69;;;3.37;100.00
6565;BME280;3316;44.118;27.258;2023-02-12T09:56:49;102483.66;;;3.44;100.00
6565;BME280;3316;44.118;27.258;2023-02-12T10:01:50;102479.25;;;3.43;100.00
6565;BME280;3316;44.118;27.258;2023-02-12T10:04:15;102492.34;;;3.45;100.00
6565;BME280;3316;44.118;27.258;2023-02-12T10:06:50;102489.34;;;3.55;100.00
6565;BME280;3316;44.118;27.258;2023-02-12T10:12:25;102479.84;;;3.38;100.00
6565;BME280;3316;44.118;27.258;2023-02-12T10:17:42;102473.72;;;3.55;100.00
6565;BME280;3316;44.118;27.258;2023-02-12T10:20:31;102491.66;;;3.67;100.00
6565;BME280;3316;44.118;27.258;2023-02-12T10:25:48;102453.34;;;3.27;100.00
6565;BME280;3316;44.118;27.258;2023-02-12T10:28:32;102492.41;;;3.64;100.00
6565;BME280;3316;44.118;27.258;2023-02-12T10:31:01;102492.88;;;3.75;100.00
6565;BME280;3316;44.118;27.258;2023-02-12T10:33:36;102485.00;;;3.73;100.00
6565;BME280;3316;44.118;27.258;2023-02-12T10:38:50;102501.31;;;3.69;100.00
6565;BME280;3316;44.118;27.258;2023-02-12T10:41:20;102465.97;;;3.37;100.00
6565;BME280;3316;44.118;27.258;2023-02-12T10:43:47;102489.22;;;3.52;100.00
6565;BME280;3316;44.118;27.258;2023-02-12T10:46:16;102492.91;;;3.57;100.00
6565;BME280;3316;44.118;27.258;2023-02-12T10:48:44;102487.81;;;3.58;100.00
6565;BME280;3316;44.118;27.258;2023-02-12T10:51:55;102488.91;;;3.63;100.00
6565;BME280;3316;44.118;27.258;2023-02-12T10:57:21;102510.31;;;3.58;100.00
6565;BME280;3316;44.118;27.258;2023-02-12T10:59:50;102509.28;;;3.54;100.00
6565;BME280;3316;44.118;27.258;2023-02-12T11:02:29;102489.09;;;3.49;100.00
6565;BME280;3316;44.118;27.258;2023-02-12T11:04:57;102489.56;;;3.59;100.00
6565;BME280;3316;44.118;27.258;2023-02-12T11:07:24;102516.72;;;3.65;100.00
6565;BME280;3316;44.118;27.258;2023-02-12T11:09:52;102520.00;;;3.60;100.00
6565;BME280;3316;44.118;27.258;2023-02-12T11:12:35;102514.34;;;3.51;100.00
6565;BME280;3316;44.118;27.258;2023-02-12T11:15:16;102517.03;;;3.53;100.00
6565;BME280;3316;44.118;27.258;2023-02-12T11:17:46;102516.56;;;3.61;100.00
6565;BME280;3316;44.118;27.258;2023-02-12T11:20:21;102529.81;;;3.66;100.00
6565;BME280;3316;44.118;27.258;2023-02-12T11:23:05;102530.97;;;3.73;100.00
6565;BME280;3316;44.118;27.258;2023-02-12T11:25:34;102529.44;;;3.76;100.00
6565;BME280;3316;44.118;27.258;2023-02-12T11:28:16;102522.34;;;3.74;100.00
6565;BME280;3316;44.118;27.258;2023-02-12T11:31:00;102536.41;;;3.77;100.00
6565;BME280;3316;44.118;27.258;2023-02-12T11:33:34;102533.66;;;3.74;100.00
6565;BME280;3316;44.118;27.258;2023-02-12T11:36:12;102535.31;;;3.72;100.00
6565;BME280;3316;44.118;27.258;2023-02-12T11:38:48;102543.84;;;3.70;100.00
6565;BME280;3316;44.118;27.258;2023-02-12T11:41:35;102537.25;;;3.76;100.00
6565;BME280;3316;44.118;27.258;2023-02-12T11:44:09;102541.47;;;3.74;100.00
6565;BME280;3316;44.118;27.258;2023-02-12T11:46:36;102553.16;;;3.82;100.00
6565;BME280;3316;44.118;27.258;2023-02-12T11:49:04;102547.50;;;3.73;100.00
6565;BME280;3316;44.118;27.258;2023-02-12T11:51:30;102542.22;;;3.72;100.00
6565;BME280;3316;44.118;27.258;2023-02-12T11:53:59;102542.22;;;3.72;100.00
6565;BME280;3316;44.118;27.258;2023-02-12T11:56:47;102542.75;;;3.82;100.00
6565;BME280;3316;44.118;27.258;2023-02-12T12:01:54;102537.72;;;3.87;100.00
6565;BME280;3316;44.118;27.258;2023-02-12T12:04:23;102535.78;;;3.83;100.00
6565;BME280;3316;44.118;27.258;2023-02-12T12:07:04;102540.50;;;3.90;100.00
6565;BME280;3316;44.118;27.258;2023-02-12T12:09:33;102538.84;;;3.92;100.00
6565;BME280;3316;44.118;27.258;2023-02-12T12:12:21;102542.59;;;3.98;100.00
6565;BME280;3316;44.118;27.258;2023-02-12T12:15:10;102552.41;;;4.04;100.00
6565;BME280;3316;44.118;27.258;2023-02-12T12:25:51;102550.75;;;4.42;100.00
6565;BME280;3316;44.118;27.258;2023-02-12T12:31:15;102548.31;;;4.85;100.00
6565;BME280;3316;44.118;27.258;2023-02-12T12:47:25;102571.97;;;4.90;100.00
6565;BME280;3316;44.118;27.258;2023-02-12T12:50:03;102564.16;;;4.90;100.00
6565;BME280;3316;44.118;27.258;2023-02-12T12:58:48;102575.19;;;5.44;100.00
6565;BME280;3316;44.118;27.258;2023-02-12T13:15:16;102591.00;;;6.57;100.00
6565;BME280;3316;44.118;27.258;2023-02-12T13:17:56;102593.88;;;6.41;100.00
6565;BME280;3316;44.118;27.258;2023-02-12T13:26:02;102599.31;;;6.69;100.00
6565;BME280;3316;44.118;27.258;2023-02-12T13:28:41;102602.94;;;6.72;100.00
6565;BME280;3316;44.118;27.258;2023-02-12T13:31:13;102604.22;;;6.61;100.00
6565;BME280;3316;44.118;27.258;2023-02-12T13:33:42;102606.31;;;6.70;100.00
6565;BME280;3316;44.118;27.258;2023-02-12T13:36:12;102607.47;;;6.78;100.00
6565;BME280;3316;44.118;27.258;2023-02-12T13:38:44;102610.00;;;6.75;100.00
6565;BME280;3316;44.118;27.258;2023-02-12T13:41:11;102609.06;;;6.73;100.00
6565;BME280;3316;44.118;27.258;2023-02-12T13:49:06;102628.50;;;6.81;100.00
6565;BME280;3316;44.118;27.258;2023-02-12T13:54:11;102643.22;;;6.77;100.00
6565;BME280;3316;44.118;27.258;2023-02-12T14:01:55;102640.53;;;6.08;100.00
6565;BME280;3316;44.118;27.258;2023-02-12T14:07:03;102653.06;;;6.16;100.00
6565;BME280;3316;44.118;27.258;2023-02-12T14:12:04;102639.19;;;5.97;100.00
6565;BME280;3316;44.118;27.258;2023-02-12T14:14:38;102657.97;;;6.09;100.00
6565;BME280;3316;44.118;27.258;2023-02-12T14:23:26;102666.72;;;6.09;100.00
6565;BME280;3316;44.118;27.258;2023-02-12T14:28:48;102665.97;;;6.12;100.00
6565;BME280;3316;44.118;27.258;2023-02-12T14:33:45;102666.47;;;6.03;100.00
6565;BME280;3316;44.118;27.258;2023-02-12T14:36:36;102689.59;;;6.15;100.00
6565;BME280;3316;44.118;27.258;2023-02-12T14:41:49;102694.31;;;6.03;100.00
6565;BME280;3316;44.118;27.258;2023-02-12T14:49:24;102691.22;;;5.72;100.00
6565;BME280;3316;44.118;27.258;2023-02-12T14:54:55;102697.63;;;5.78;100.00
6565;BME280;3316;44.118;27.258;2023-02-12T14:57:35;102708.06;;;5.58;100.00
6565;BME280;3316;44.118;27.258;2023-02-12T15:03:06;102724.22;;;5.49;100.00
6565;BME280;3316;44.118;27.258;2023-02-12T15:08:39;102730.13;;;5.45;100.00
6565;BME280;3316;44.118;27.258;2023-02-12T15:11:15;102741.94;;;5.37;100.00
6565;BME280;3316;44.118;27.258;2023-02-12T15:20:12;102756.75;;;4.81;100.00
6565;BME280;3316;44.118;27.258;2023-02-12T15:22:21;102750.59;;;4.61;100.00
6565;BME280;3316;44.118;27.258;2023-02-12T15:24:48;102751.66;;;4.47;100.00
6565;BME280;3316;44.118;27.258;2023-02-12T15:27:14;102756.00;;;4.29;100.00
6565;BME280;3316;44.118;27.258;2023-02-12T15:29:42;102768.94;;;4.27;100.00
6565;BME280;3316;44.118;27.258;2023-02-12T15:32:17;102756.00;;;4.11;100.00
6565;BME280;3316;44.118;27.258;2023-02-12T15:34:47;102741.38;;;3.97;100.00
6565;BME280;3316;44.118;27.258;2023-02-12T15:37:28;102747.03;;;3.89;100.00
6565;BME280;3316;44.118;27.258;2023-02-12T15:39:57;102797.19;;;4.02;100.00
6565;BME280;3316;44.118;27.258;2023-02-12T15:44:51;102797.34;;;3.88;100.00
6565;BME280;3316;44.118;27.258;2023-02-12T15:47:17;102811.16;;;3.87;100.00
6565;BME280;3316;44.118;27.258;2023-02-12T15:49:48;102824.03;;;3.84;100.00
6565;BME280;3316;44.118;27.258;2023-02-12T15:52:23;102829.56;;;3.74;100.00
6565;BME280;3316;44.118;27.258;2023-02-12T15:54:57;102830.47;;;3.74;100.00
6565;BME280;3316;44.118;27.258;2023-02-12T15:57:23;102839.09;;;3.73;100.00
6565;BME280;3316;44.118;27.258;2023-02-12T15:59:54;102849.03;;;3.64;100.00
6565;BME280;3316;44.118;27.258;2023-02-12T16:02:26;102846.91;;;3.57;100.00